Time;durP1;ratioP1;P1;durP2;ratioP2;P2;SDS_P1;SDS_P2;PMS_P1;PMS_P2;Temp;Humidity;BMP_temperature;BMP_pressure;BME280_temperature;BME280_humidity;BME280_pressure;Samples;Min_cycle;Max_cycle;Signal;HPM_P1;HPM_P2
2023/05/19 00:00:13;;;;;;;8.50;3.90;;;;;;;;;;5057252;28;20182;-68
2023/05/19 00:02:39;;;;;;;7.83;3.70;;;;;;;;;;5044164;28;20228;-69
2023/05/19 00:05:05;;;;;;;7.90;4.27;;;;;;;;;;5056156;28;20205;-68
2023/05/19 00:07:31;;;;;;;11.13;4.70;;;;;;;;;;5057641;28;20199;-68
2023/05/19 00:09:58;;;;;;;11.00;4.50;;;;;;;;;;5056266;28;20167;-69
2023/05/19 00:12:24;;;;;;;7.33;4.23;;;;;;;;;;5056199;28;20171;-69
2023/05/19 00:14:50;;;;;;;16.97;4.47;;;;;;;;;;5056109;28;20543;-69
2023/05/19 00:17:16;;;;;;;9.60;4.17;;;;;;;;;;5038230;28;20182;-68
2023/05/19 00:19:43;;;;;;;10.07;4.87;;;;;;;;;;5055728;28;20258;-69
2023/05/19 00:22:10;;;;;;;10.93;4.63;;;;;;;;;;5056216;28;20227;-69
2023/05/19 00:24:36;;;;;;;10.70;4.57;;;;;;;;;;5055529;28;20210;-69
2023/05/19 00:27:02;;;;;;;10.47;4.90;;;;;;;;;;5055776;28;20244;-68
2023/05/19 00:29:28;;;;;;;9.37;4.60;;;;;;;;;;5055504;28;20174;-68
2023/05/19 00:31:54;;;;;;;10.77;4.10;;;;;;;;;;5055874;28;20540;-69
2023/05/19 00:34:20;;;;;;;12.30;4.40;;;;;;;;;;5037256;28;20183;-68
2023/05/19 00:36:46;;;;;;;8.87;4.53;;;;;;;;;;5055128;28;20343;-69
2023/05/19 00:39:12;;;;;;;9.90;4.97;;;;;;;;;;5055157;28;20183;-68
2023/05/19 00:41:38;;;;;;;12.03;4.70;;;;;;;;;;5055651;28;20206;-69
2023/05/19 00:44:04;;;;;;;7.97;4.43;;;;;;;;;;5037324;28;20208;-67
2023/05/19 00:46:30;;;;;;;9.97;4.60;;;;;;;;;;5055343;28;20194;-69
2023/05/19 00:48:56;;;;;;;10.57;4.87;;;;;;;;;;5054931;28;20178;-69
2023/05/19 00:51:23;;;;;;;11.50;4.57;;;;;;;;;;5054741;28;20179;-69
2023/05/19 00:53:50;;;;;;;10.30;4.90;;;;;;;;;;5036889;28;20178;-69
2023/05/19 00:56:17;;;;;;;12.13;4.63;;;;;;;;;;5036652;28;20237;-69
2023/05/19 00:58:43;;;;;;;10.40;4.20;;;;;;;;;;5055026;28;20194;-69
2023/05/19 01:01:13;;;;;;;9.33;4.47;;;;;;;;;;5055819;28;20248;-69
2023/05/19 01:03:39;;;;;;;7.40;4.03;;;;;;;;;;5054846;28;20175;-68
2023/05/19 01:06:06;;;;;;;7.80;4.53;;;;;;;;;;5054508;28;20198;-69
2023/05/19 01:08:36;;;;;;;8.90;3.87;;;;;;;;;;5036583;28;20260;-68
2023/05/19 01:11:02;;;;;;;9.53;3.87;;;;;;;;;;5054811;28;20206;-69
2023/05/19 01:13:28;;;;;;;11.63;4.50;;;;;;;;;;5054841;28;20174;-69
2023/05/19 01:16:16;;;;;;;8.37;3.80;;;;;;;;;;5036781;28;20576;-69
2023/05/19 01:19:02;;;;;;;10.67;4.50;;;;;;;;;;5054471;28;20236;-68
2023/05/19 01:21:47;;;;;;;8.83;4.20;;;;;;;;;;5054750;28;20204;-69
2023/05/19 01:24:21;;;;;;;7.90;4.57;;;;;;;;;;5036398;28;20189;-68
2023/05/19 01:26:53;;;;;;;10.67;4.50;;;;;;;;;;5054273;28;20667;-68
2023/05/19 01:29:19;;;;;;;7.00;4.17;;;;;;;;;;5054176;28;20544;-68
2023/05/19 01:31:46;;;;;;;7.97;3.73;;;;;;;;;;5036834;28;20239;-68
2023/05/19 01:34:14;;;;;;;13.07;4.60;;;;;;;;;;5036634;28;20236;-68
2023/05/19 01:36:43;;;;;;;11.10;4.60;;;;;;;;;;5053773;28;20239;-67
2023/05/19 01:39:09;;;;;;;8.20;4.87;;;;;;;;;;5054244;28;20610;-68
2023/05/19 01:41:36;;;;;;;9.30;4.20;;;;;;;;;;5054165;28;20225;-68
2023/05/19 01:44:02;;;;;;;9.43;5.00;;;;;;;;;;5053894;28;20171;-69
2023/05/19 01:46:28;;;;;;;14.63;5.33;;;;;;;;;;5053778;28;20194;-69
2023/05/19 01:48:54;;;;;;;11.03;5.60;;;;;;;;;;5035904;28;20186;-69
2023/05/19 01:51:20;;;;;;;17.40;6.93;;;;;;;;;;5036853;28;20200;-68
2023/05/19 01:53:46;;;;;;;16.17;6.30;;;;;;;;;;5036059;28;20652;-68
2023/05/19 01:56:14;;;;;;;15.70;7.00;;;;;;;;;;5035595;28;20644;-68
2023/05/19 01:58:44;;;;;;;13.13;5.80;;;;;;;;;;5053506;28;20182;-68
2023/05/19 02:01:25;;;;;;;13.17;5.83;;;;;;;;;;5053823;28;20186;-68
2023/05/19 02:04:09;;;;;;;11.37;6.07;;;;;;;;;;5054206;28;20171;-68
2023/05/19 02:06:40;;;;;;;15.17;6.23;;;;;;;;;;5053436;28;20761;-68
2023/05/19 02:09:15;;;;;;;12.20;5.40;;;;;;;;;;5053820;28;20616;-68
2023/05/19 02:11:43;;;;;;;13.53;5.50;;;;;;;;;;5053550;28;20174;-68
2023/05/19 02:14:17;;;;;;;12.03;5.77;;;;;;;;;;5035413;28;20656;-68
2023/05/19 02:16:45;;;;;;;9.27;5.20;;;;;;;;;;5053158;28;20273;-69
2023/05/19 02:19:23;;;;;;;12.57;5.47;;;;;;;;;;5053284;28;20253;-68
2023/05/19 02:21:49;;;;;;;9.63;5.50;;;;;;;;;;5035390;28;20235;-68
2023/05/19 02:24:16;;;;;;;10.43;5.03;;;;;;;;;;5053174;28;20175;-68
2023/05/19 02:26:42;;;;;;;10.77;5.57;;;;;;;;;;5035164;28;20198;-68
2023/05/19 02:29:08;;;;;;;11.80;5.73;;;;;;;;;;5053466;28;20185;-68
2023/05/19 02:31:34;;;;;;;7.30;5.07;;;;;;;;;;5035296;28;20175;-68
2023/05/19 02:34:00;;;;;;;10.20;5.53;;;;;;;;;;5035348;28;20644;-68
2023/05/19 02:36:27;;;;;;;10.67;5.80;;;;;;;;;;5053195;28;20675;-68
2023/05/19 02:38:53;;;;;;;10.67;6.40;;;;;;;;;;5053390;28;20580;-68
2023/05/19 02:41:18;;;;;;;9.77;5.27;;;;;;;;;;5053163;28;20243;-68
2023/05/19 02:43:44;;;;;;;12.40;5.80;;;;;;;;;;5054378;28;20190;-68
2023/05/19 02:46:10;;;;;;;11.40;5.17;;;;;;;;;;5053780;28;20210;-68
2023/05/19 02:48:36;;;;;;;13.90;6.00;;;;;;;;;;5039177;28;20237;-68
2023/05/19 02:51:02;;;;;;;9.17;5.87;;;;;;;;;;5039216;28;20770;-68
2023/05/19 02:53:28;;;;;;;11.73;6.17;;;;;;;;;;5039067;28;20178;-68
2023/05/19 02:55:54;;;;;;;14.73;6.47;;;;;;;;;;5056691;28;20579;-68
2023/05/19 02:58:20;;;;;;;15.00;6.60;;;;;;;;;;5057369;28;20258;-68
2023/05/19 03:00:46;;;;;;;9.03;5.80;;;;;;;;;;5039015;28;20178;-68
2023/05/19 03:03:13;;;;;;;10.90;6.17;;;;;;;;;;5056753;28;20174;-68
2023/05/19 03:05:39;;;;;;;11.07;5.80;;;;;;;;;;5057079;28;20702;-68
2023/05/19 03:08:05;;;;;;;10.23;5.27;;;;;;;;;;5038580;28;20289;-68
2023/05/19 03:10:31;;;;;;;14.17;6.10;;;;;;;;;;5056592;28;20170;-68
2023/05/19 03:12:57;;;;;;;12.40;5.97;;;;;;;;;;5056602;28;20170;-68
2023/05/19 03:15:23;;;;;;;10.07;5.30;;;;;;;;;;5038487;28;20217;-68
2023/05/19 03:17:49;;;;;;;10.43;5.73;;;;;;;;;;5056442;28;20332;-68
2023/05/19 03:20:15;;;;;;;13.43;6.87;;;;;;;;;;5056584;28;20171;-69
2023/05/19 03:22:41;;;;;;;10.30;5.80;;;;;;;;;;5056731;28;20175;-68
2023/05/19 03:25:07;;;;;;;10.80;6.50;;;;;;;;;;5056424;28;20179;-69
2023/05/19 03:27:33;;;;;;;16.90;5.97;;;;;;;;;;5038301;28;20267;-69
2023/05/19 03:29:59;;;;;;;11.60;6.07;;;;;;;;;;5038398;28;20209;-69
2023/05/19 03:32:25;;;;;;;13.67;7.17;;;;;;;;;;5038640;28;20174;-68
2023/05/19 03:34:51;;;;;;;13.30;6.87;;;;;;;;;;5039843;28;20228;-68
2023/05/19 03:37:17;;;;;;;12.80;7.00;;;;;;;;;;5056342;28;20636;-68
2023/05/19 03:39:43;;;;;;;13.37;7.20;;;;;;;;;;5038371;28;20667;-68
2023/05/19 03:42:09;;;;;;;12.80;6.80;;;;;;;;;;5038143;28;20196;-69
2023/05/19 03:44:35;;;;;;;9.23;6.07;;;;;;;;;;5056814;28;20181;-69
2023/05/19 03:47:01;;;;;;;10.70;6.80;;;;;;;;;;5058410;28;20210;-68
2023/05/19 03:49:27;;;;;;;11.20;6.30;;;;;;;;;;5041842;28;20179;-68
2023/05/19 03:51:53;;;;;;;13.03;6.90;;;;;;;;;;5039860;28;20186;-68
2023/05/19 03:54:21;;;;;;;14.40;6.37;;;;;;;;;;5056755;28;20178;-68
2023/05/19 03:56:47;;;;;;;9.07;6.17;;;;;;;;;;5056011;28;20352;-68
2023/05/19 03:59:13;;;;;;;9.73;6.20;;;;;;;;;;5055501;28;20219;-68
2023/05/19 04:01:39;;;;;;;12.23;6.83;;;;;;;;;;5037908;28;20182;-68
2023/05/19 04:04:05;;;;;;;12.43;6.67;;;;;;;;;;5037798;28;20174;-68
2023/05/19 04:06:31;;;;;;;12.93;6.40;;;;;;;;;;5037740;28;20201;-68
2023/05/19 04:08:57;;;;;;;14.20;7.43;;;;;;;;;;5037810;28;20178;-68
2023/05/19 04:11:23;;;;;;;14.30;6.97;;;;;;;;;;5037599;28;20175;-68
2023/05/19 04:13:49;;;;;;;11.33;7.03;;;;;;;;;;5055869;28;20178;-68
2023/05/19 04:16:15;;;;;;;15.47;6.53;;;;;;;;;;5037494;28;20190;-68
2023/05/19 04:18:41;;;;;;;15.07;6.80;;;;;;;;;;5055256;28;20171;-69
2023/05/19 04:21:07;;;;;;;15.43;7.07;;;;;;;;;;5037328;28;20178;-69
2023/05/19 04:23:33;;;;;;;12.13;7.00;;;;;;;;;;5037455;28;20212;-68
2023/05/19 04:26:00;;;;;;;13.53;7.33;;;;;;;;;;5056849;28;20797;-68
2023/05/19 04:28:26;;;;;;;12.97;7.30;;;;;;;;;;5037221;28;20206;-68
2023/05/19 04:30:52;;;;;;;13.80;6.83;;;;;;;;;;5055360;28;20240;-69
2023/05/19 04:33:18;;;;;;;15.47;7.70;;;;;;;;;;5055518;28;20171;-68
2023/05/19 04:35:44;;;;;;;15.67;8.60;;;;;;;;;;5054908;28;20739;-68
2023/05/19 04:38:11;;;;;;;11.43;6.83;;;;;;;;;;5055212;28;20175;-68
2023/05/19 04:40:39;;;;;;;13.07;8.07;;;;;;;;;;5037053;28;20224;-68
2023/05/19 04:43:06;;;;;;;12.77;7.93;;;;;;;;;;5037026;28;20190;-68
2023/05/19 04:45:32;;;;;;;15.10;7.50;;;;;;;;;;5036861;28;20198;-68
2023/05/19 04:47:58;;;;;;;14.43;8.17;;;;;;;;;;5054777;28;20217;-68
2023/05/19 04:50:25;;;;;;;12.10;7.37;;;;;;;;;;5054657;28;20284;-68
2023/05/19 04:52:51;;;;;;;13.20;7.73;;;;;;;;;;5036814;28;20186;-68
2023/05/19 04:55:17;;;;;;;14.93;7.97;;;;;;;;;;5036450;28;20212;-68
2023/05/19 04:57:43;;;;;;;12.57;7.47;;;;;;;;;;5054920;28;20186;-68
2023/05/19 05:00:12;;;;;;;12.53;7.00;;;;;;;;;;5054680;28;20182;-68
2023/05/19 05:02:38;;;;;;;14.37;7.27;;;;;;;;;;5054566;28;20324;-68
2023/05/19 05:05:04;;;;;;;14.37;6.20;;;;;;;;;;5036626;28;20652;-68
2023/05/19 05:07:30;;;;;;;9.00;6.30;;;;;;;;;;5036453;28;20237;-68
2023/05/19 05:09:56;;;;;;;11.73;7.10;;;;;;;;;;5053684;28;20178;-68
2023/05/19 05:12:22;;;;;;;19.03;6.63;;;;;;;;;;5037276;28;20179;-68
2023/05/19 05:14:48;;;;;;;19.00;7.83;;;;;;;;;;5037062;28;20679;-68
2023/05/19 05:17:15;;;;;;;26.30;9.00;;;;;;;;;;5040000;28;20574;-68
2023/05/19 05:19:41;;;;;;;17.00;8.67;;;;;;;;;;5036693;28;20182;-68
2023/05/19 05:22:07;;;;;;;23.43;8.97;;;;;;;;;;5054611;28;20182;-68
2023/05/19 05:24:33;;;;;;;15.97;7.80;;;;;;;;;;5054175;28;20636;-68
2023/05/19 05:27:00;;;;;;;20.03;8.50;;;;;;;;;;5036107;28;20662;-68
2023/05/19 05:29:26;;;;;;;16.87;8.27;;;;;;;;;;5054287;28;20257;-68
2023/05/19 05:31:52;;;;;;;12.40;7.30;;;;;;;;;;5036218;28;20171;-69
2023/05/19 05:34:18;;;;;;;18.53;7.47;;;;;;;;;;5036126;28;20177;-68
2023/05/19 05:36:44;;;;;;;13.50;7.70;;;;;;;;;;5036066;28;20675;-68
2023/05/19 05:39:10;;;;;;;15.97;7.40;;;;;;;;;;5053810;28;20170;-68
2023/05/19 05:41:36;;;;;;;15.87;7.97;;;;;;;;;;5053793;28;20197;-68
2023/05/19 05:44:02;;;;;;;13.90;7.80;;;;;;;;;;5053737;28;20175;-68
2023/05/19 05:46:28;;;;;;;12.57;6.10;;;;;;;;;;5053687;28;20245;-69
2023/05/19 05:48:54;;;;;;;10.93;5.90;;;;;;;;;;5035836;28;20202;-69
2023/05/19 05:51:21;;;;;;;12.73;6.47;;;;;;;;;;5035873;28;20175;-69
2023/05/19 05:53:50;;;;;;;15.97;5.73;;;;;;;;;;5035682;28;20175;-69
2023/05/19 05:56:17;;;;;;;15.30;6.70;;;;;;;;;;5053381;28;20206;-69
2023/05/19 05:58:43;;;;;;;15.77;6.63;;;;;;;;;;5053457;28;20311;-69
2023/05/19 06:01:11;;;;;;;10.30;5.97;;;;;;;;;;5053406;28;20664;-69
2023/05/19 06:03:41;;;;;;;11.93;6.50;;;;;;;;;;5053320;28;20707;-68
2023/05/19 06:06:07;;;;;;;11.40;6.30;;;;;;;;;;5035548;28;20198;-69
2023/05/19 06:08:33;;;;;;;11.20;6.57;;;;;;;;;;5054650;28;20202;-69
2023/05/19 06:10:59;;;;;;;12.37;5.17;;;;;;;;;;5035481;28;20228;-69
2023/05/19 06:13:25;;;;;;;13.73;5.77;;;;;;;;;;5035405;28;20185;-69
2023/05/19 06:15:51;;;;;;;11.20;5.87;;;;;;;;;;5053258;28;20190;-69
2023/05/19 06:18:18;;;;;;;13.60;5.73;;;;;;;;;;5035800;28;20656;-69
2023/05/19 06:20:44;;;;;;;11.57;5.10;;;;;;;;;;5035108;28;20183;-69
2023/05/19 06:23:10;;;;;;;10.00;5.03;;;;;;;;;;5035298;28;20186;-70
2023/05/19 06:25:36;;;;;;;10.70;5.33;;;;;;;;;;5053244;28;20268;-69
2023/05/19 06:28:02;;;;;;;16.57;5.60;;;;;;;;;;5052894;28;20225;-69
2023/05/19 06:30:28;;;;;;;8.90;4.40;;;;;;;;;;5053208;28;20171;-69
2023/05/19 06:32:54;;;;;;;11.17;4.80;;;;;;;;;;5053098;28;20205;-68
2023/05/19 06:35:20;;;;;;;33.20;4.50;;;;;;;;;;5052840;28;20201;-69
2023/05/19 06:37:46;;;;;;;8.60;4.30;;;;;;;;;;5053184;28;20200;-68
2023/05/19 06:40:12;;;;;;;7.33;4.87;;;;;;;;;;5035458;28;20189;-69
2023/05/19 06:42:38;;;;;;;9.40;4.77;;;;;;;;;;5052828;28;20305;-69
2023/05/19 06:45:04;;;;;;;9.20;4.70;;;;;;;;;;5052832;28;20222;-69
2023/05/19 06:47:30;;;;;;;8.73;4.60;;;;;;;;;;5052722;28;20194;-69
2023/05/19 06:49:56;;;;;;;10.47;5.17;;;;;;;;;;5034982;28;20174;-69
2023/05/19 06:52:22;;;;;;;10.57;5.30;;;;;;;;;;5053001;28;20198;-69
2023/05/19 06:54:49;;;;;;;13.40;5.00;;;;;;;;;;5053122;28;20190;-69
2023/05/19 06:57:15;;;;;;;9.10;5.17;;;;;;;;;;5053407;28;20209;-69
2023/05/19 06:59:42;;;;;;;14.30;5.50;;;;;;;;;;5054323;28;20538;-69
2023/05/19 07:02:08;;;;;;;9.10;4.17;;;;;;;;;;5036536;28;20237;-68
2023/05/19 07:04:35;;;;;;;13.17;4.67;;;;;;;;;;5053591;28;20254;-68
2023/05/19 07:07:01;;;;;;;9.10;4.70;;;;;;;;;;5052774;28;20203;-69
2023/05/19 07:09:27;;;;;;;6.47;3.90;;;;;;;;;;5034879;28;20180;-69
2023/05/19 07:11:55;;;;;;;6.83;4.00;;;;;;;;;;5052716;28;20266;-69
2023/05/19 07:14:20;;;;;;;11.57;4.53;;;;;;;;;;5052886;28;20216;-69
2023/05/19 07:16:47;;;;;;;12.30;4.50;;;;;;;;;;5034641;28;20285;-69
2023/05/19 07:19:12;;;;;;;10.63;4.83;;;;;;;;;;5034711;28;20223;-69
2023/05/19 07:21:38;;;;;;;9.10;4.60;;;;;;;;;;5053050;28;20185;-69
2023/05/19 07:24:05;;;;;;;9.47;4.37;;;;;;;;;;5052490;28;20186;-69
2023/05/19 07:26:31;;;;;;;8.80;4.50;;;;;;;;;;5052355;28;20248;-69
2023/05/19 07:28:57;;;;;;;13.10;5.00;;;;;;;;;;5034545;28;20284;-68
2023/05/19 07:31:23;;;;;;;12.93;4.53;;;;;;;;;;5052703;28;20222;-69
2023/05/19 07:33:48;;;;;;;9.97;4.67;;;;;;;;;;5036133;28;20737;-69
2023/05/19 07:36:15;;;;;;;13.80;4.30;;;;;;;;;;5056226;28;20198;-69
2023/05/19 07:38:41;;;;;;;9.87;4.67;;;;;;;;;;5038099;28;20264;-69
2023/05/19 07:41:07;;;;;;;11.80;5.07;;;;;;;;;;5052080;23;20226;-64
2023/05/19 07:43:33;;;;;;;6.43;3.40;;;;;;;;;;5036720;28;20706;-65
2023/05/19 07:45:59;;;;;;;9.63;4.40;;;;;;;;;;5018686;28;20707;-64
2023/05/19 07:48:25;;;;;;;9.63;3.80;;;;;;;;;;5018820;28;20290;-64
2023/05/19 07:50:51;;;;;;;6.00;2.93;;;;;;;;;;5036612;28;20191;-64
2023/05/19 07:53:18;;;;;;;9.30;3.50;;;;;;;;;;5018447;28;20179;-64
2023/05/19 07:55:43;;;;;;;11.00;3.97;;;;;;;;;;5036067;28;20175;-65
2023/05/19 07:58:09;;;;;;;5.37;3.50;;;;;;;;;;5036283;28;20229;-64
2023/05/19 08:00:36;;;;;;;4.73;2.77;;;;;;;;;;5035993;28;20695;-65
2023/05/19 08:03:02;;;;;;;9.37;3.67;;;;;;;;;;5018632;28;20263;-71
2023/05/19 08:05:28;;;;;;;7.23;3.50;;;;;;;;;;5036360;28;20183;-66
2023/05/19 08:07:55;;;;;;;9.17;3.70;;;;;;;;;;5036090;28;20198;-66
2023/05/19 08:10:21;;;;;;;7.07;3.10;;;;;;;;;;5035836;28;20550;-66
2023/05/19 08:12:47;;;;;;;7.30;3.47;;;;;;;;;;5018135;28;20183;-66
2023/05/19 08:15:13;;;;;;;5.73;2.50;;;;;;;;;;5035585;28;20199;-66
2023/05/19 08:17:39;;;;;;;7.00;3.40;;;;;;;;;;5017968;28;20258;-66
2023/05/19 08:20:07;;;;;;;5.17;3.03;;;;;;;;;;5036086;28;20186;-66
2023/05/19 08:22:33;;;;;;;6.17;3.17;;;;;;;;;;5035922;28;20183;-66
2023/05/19 08:25:00;;;;;;;8.57;2.80;;;;;;;;;;5036672;28;20183;-66
2023/05/19 08:27:26;;;;;;;9.47;3.20;;;;;;;;;;5035510;28;20665;-66
2023/05/19 08:29:54;;;;;;;6.20;2.97;;;;;;;;;;5017802;28;20225;-66
2023/05/19 08:32:20;;;;;;;5.97;3.20;;;;;;;;;;5035534;28;20241;-66
2023/05/19 08:34:45;;;;;;;9.80;4.30;;;;;;;;;;5019128;28;20183;-66
2023/05/19 08:37:12;;;;;;;9.63;3.77;;;;;;;;;;5036191;28;20205;-66
2023/05/19 08:39:37;;;;;;;10.90;2.70;;;;;;;;;;5035643;28;20645;-66
2023/05/19 08:42:06;;;;;;;5.97;2.20;;;;;;;;;;5017668;28;20235;-67
2023/05/19 08:44:33;;;;;;;7.13;3.13;;;;;;;;;;5017339;28;20183;-66
2023/05/19 08:47:11;;;;;;;7.77;2.57;;;;;;;;;;5017527;28;20587;-66
2023/05/19 08:49:42;;;;;;;5.83;3.50;;;;;;;;;;5035451;28;20155;-66
2023/05/19 08:52:28;;;;;;;9.10;3.47;;;;;;;;;;5017112;28;20199;-66
2023/05/19 08:55:04;;;;;;;4.80;2.00;;;;;;;;;;5016845;28;20183;-67
2023/05/19 08:57:31;;;;;;;6.07;2.23;;;;;;;;;;5034801;28;20187;-66
2023/05/19 08:59:58;;;;;;;5.27;2.40;;;;;;;;;;5035366;28;20527;-66
2023/05/19 09:02:24;;;;;;;8.33;2.43;;;;;;;;;;5017045;28;20290;-66
2023/05/19 09:04:50;;;;;;;6.07;2.37;;;;;;;;;;5034722;28;20203;-66
2023/05/19 09:07:17;;;;;;;5.37;2.40;;;;;;;;;;5016894;28;20666;-66
2023/05/19 09:09:43;;;;;;;5.57;2.93;;;;;;;;;;5016802;28;20206;-66
2023/05/19 09:12:10;;;;;;;5.50;2.50;;;;;;;;;;5034392;28;20194;-65
2023/05/19 09:14:36;;;;;;;4.97;2.60;;;;;;;;;;5034671;28;20171;-64
2023/05/19 09:17:03;;;;;;;8.23;4.30;;;;;;;;;;5034349;28;20262;-66
2023/05/19 09:19:29;;;;;;;13.30;7.43;;;;;;;;;;5034505;28;20190;-66
2023/05/19 09:21:59;;;;;;;7.87;3.67;;;;;;;;;;5034271;28;20282;-66
2023/05/19 09:24:25;;;;;;;28.33;21.60;;;;;;;;;;5016561;28;20398;-66
2023/05/19 09:26:54;;;;;;;4.10;2.27;;;;;;;;;;5016372;28;20273;-66
2023/05/19 09:29:20;;;;;;;6.80;2.60;;;;;;;;;;5034485;28;20203;-66
2023/05/19 09:31:54;;;;;;;8.60;3.10;;;;;;;;;;5016270;28;20199;-66
2023/05/19 09:34:23;;;;;;;6.17;2.50;;;;;;;;;;5016461;28;20745;-66
2023/05/19 09:36:50;;;;;;;7.10;2.77;;;;;;;;;;5016369;28;20171;-66
2023/05/19 09:39:16;;;;;;;4.33;2.33;;;;;;;;;;5033944;28;20172;-66
2023/05/19 09:41:42;;;;;;;7.23;2.90;;;;;;;;;;5033815;28;20689;-65
2023/05/19 09:44:21;;;;;;;6.27;3.20;;;;;;;;;;5033993;28;20601;-66
2023/05/19 09:46:51;;;;;;;7.03;3.03;;;;;;;;;;5016102;28;20179;-66
2023/05/19 09:49:21;;;;;;;6.97;3.30;;;;;;;;;;5033777;28;20171;-65
2023/05/19 09:51:51;;;;;;;10.37;4.80;;;;;;;;;;5033468;28;20245;-66
2023/05/19 09:54:17;;;;;;;6.13;3.17;;;;;;;;;;5033595;28;20197;-67
2023/05/19 09:56:43;;;;;;;6.73;4.00;;;;;;;;;;5035274;28;20217;-65
2023/05/19 09:59:09;;;;;;;6.03;2.90;;;;;;;;;;5037110;28;20179;-65
2023/05/19 10:01:39;;;;;;;7.93;3.00;;;;;;;;;;5035571;28;20202;-65
2023/05/19 10:04:05;;;;;;;10.23;3.17;;;;;;;;;;5018731;28;20183;-67
2023/05/19 10:06:32;;;;;;;11.00;4.63;;;;;;;;;;5036641;28;20186;-65
2023/05/19 10:08:58;;;;;;;6.10;3.77;;;;;;;;;;5036113;28;20217;-65
2023/05/19 10:11:26;;;;;;;7.10;3.50;;;;;;;;;;5018639;28;20195;-65
2023/05/19 10:13:52;;;;;;;22.13;19.07;;;;;;;;;;5018483;28;20261;-65
2023/05/19 10:16:18;;;;;;;12.60;9.53;;;;;;;;;;5035663;28;20233;-66
2023/05/19 10:18:44;;;;;;;11.67;4.10;;;;;;;;;;5035931;28;20556;-65
2023/05/19 10:21:10;;;;;;;4.97;2.90;;;;;;;;;;5035601;28;20206;-65
2023/05/19 10:23:36;;;;;;;7.83;3.30;;;;;;;;;;5036260;28;20190;-65
2023/05/19 10:26:03;;;;;;;5.37;2.80;;;;;;;;;;5035686;28;20257;-65
2023/05/19 10:28:34;;;;;;;4.80;2.63;;;;;;;;;;5035482;28;20209;-65
2023/05/19 10:31:01;;;;;;;3.83;2.30;;;;;;;;;;5035916;28;20672;-65
2023/05/19 10:33:38;;;;;;;14.07;7.47;;;;;;;;;;5017455;28;20205;-65
2023/05/19 10:36:13;;;;;;;10.10;7.20;;;;;;;;;;5035925;28;20173;-67
2023/05/19 10:38:44;;;;;;;5.60;2.80;;;;;;;;;;5035173;28;20641;-64
2023/05/19 10:41:29;;;;;;;8.53;3.27;;;;;;;;;;5015773;28;20218;-65
2023/05/19 10:44:08;;;;;;;6.10;2.63;;;;;;;;;;5033508;28;20664;-65
2023/05/19 10:46:34;;;;;;;5.40;2.20;;;;;;;;;;5033642;28;20194;-65
2023/05/19 10:49:00;;;;;;;3.50;1.83;;;;;;;;;;5033189;28;20294;-64
2023/05/19 10:51:33;;;;;;;12.67;2.90;;;;;;;;;;5033214;28;20241;-65
2023/05/19 10:54:01;;;;;;;5.47;2.83;;;;;;;;;;5015619;28;20683;-65
2023/05/19 10:56:35;;;;;;;7.77;2.47;;;;;;;;;;5033846;28;20176;-64
2023/05/19 10:59:01;;;;;;;4.83;2.63;;;;;;;;;;5034086;28;20171;-65
2023/05/19 11:01:34;;;;;;;8.67;3.17;;;;;;;;;;5015504;28;20199;-65
2023/05/19 11:04:04;;;;;;;5.20;2.33;;;;;;;;;;5033756;28;20217;-65
2023/05/19 11:06:31;;;;;;;5.70;2.80;;;;;;;;;;5033932;28;20179;-65
2023/05/19 11:09:03;;;;;;;10.87;4.17;;;;;;;;;;5035824;28;20203;-65
2023/05/19 11:11:43;;;;;;;6.70;2.67;;;;;;;;;;5019527;28;20210;-65
2023/05/19 11:14:13;;;;;;;6.93;3.00;;;;;;;;;;5037138;28;20183;-65
2023/05/19 11:16:41;;;;;;;7.63;2.50;;;;;;;;;;5019083;28;20682;-65
2023/05/19 11:19:07;;;;;;;9.33;3.30;;;;;;;;;;5036974;28;20202;-65
2023/05/19 11:21:51;;;;;;;6.23;2.77;;;;;;;;;;5019201;28;20203;-65
2023/05/19 11:24:33;;;;;;;6.87;3.00;;;;;;;;;;5036811;28;20179;-66
2023/05/19 11:26:59;;;;;;;6.13;2.67;;;;;;;;;;5019088;28;20243;-65
2023/05/19 11:29:26;;;;;;;6.63;2.80;;;;;;;;;;5019308;28;20187;-66
2023/05/19 11:31:53;;;;;;;4.97;2.63;;;;;;;;;;5036730;28;20270;-65
2023/05/19 11:34:19;;;;;;;8.50;2.40;;;;;;;;;;5038002;28;20171;-66
2023/05/19 11:36:47;;;;;;;7.03;2.80;;;;;;;;;;5037992;28;20333;-64
2023/05/19 11:39:14;;;;;;;7.13;2.97;;;;;;;;;;5020201;28;20210;-65
2023/05/19 11:41:40;;;;;;;7.82;2.88;;;;;;;;;;5037126;28;20208;-64
2023/05/19 11:44:10;;;;;;;5.20;2.00;;;;;;;;;;5019322;28;20179;-65
2023/05/19 11:46:37;;;;;;;4.30;2.20;;;;;;;;;;5037330;28;20187;-65
2023/05/19 11:49:04;;;;;;;4.20;1.90;;;;;;;;;;5036894;28;20688;-65
2023/05/19 11:51:31;;;;;;;6.03;2.87;;;;;;;;;;5036951;28;20253;-66
2023/05/19 11:53:57;;;;;;;5.47;2.67;;;;;;;;;;5036907;28;20167;-65
2023/05/19 11:56:23;;;;;;;11.80;2.87;;;;;;;;;;5036797;28;20194;-65
2023/05/19 11:58:52;;;;;;;8.73;2.90;;;;;;;;;;5036856;28;20179;-65
2023/05/19 12:01:18;;;;;;;6.30;2.33;;;;;;;;;;5018714;28;20207;-66
2023/05/19 12:03:45;;;;;;;9.03;2.57;;;;;;;;;;5037087;28;20183;-65
2023/05/19 12:06:12;;;;;;;9.80;3.03;;;;;;;;;;5018582;28;20183;-65
2023/05/19 12:08:39;;;;;;;8.13;3.13;;;;;;;;;;5035816;28;20249;-65
2023/05/19 12:11:06;;;;;;;6.30;2.67;;;;;;;;;;5018331;28;20199;-65
2023/05/19 12:13:32;;;;;;;5.27;2.70;;;;;;;;;;5036257;28;20592;-65
2023/05/19 12:16:00;;;;;;;6.13;2.70;;;;;;;;;;5036048;28;20176;-65
2023/05/19 12:18:30;;;;;;;5.20;2.40;;;;;;;;;;5035884;28;20183;-65
2023/05/19 12:20:56;;;;;;;9.53;5.43;;;;;;;;;;5035841;28;20210;-65
2023/05/19 12:23:23;;;;;;;8.73;4.00;;;;;;;;;;5035568;28;20266;-65
2023/05/19 12:25:49;;;;;;;8.97;4.10;;;;;;;;;;5036534;28;20190;-65
2023/05/19 12:28:15;;;;;;;7.63;3.73;;;;;;;;;;5018649;28;20241;-65
2023/05/19 12:30:46;;;;;;;5.43;2.80;;;;;;;;;;5019005;28;20217;-67
2023/05/19 12:33:15;;;;;;;12.87;6.20;;;;;;;;;;5018669;28;20167;-65
2023/05/19 12:35:41;;;;;;;8.27;4.73;;;;;;;;;;5036512;28;20186;-65
2023/05/19 12:38:07;;;;;;;19.30;2.90;;;;;;;;;;5036375;28;20202;-65
2023/05/19 12:40:34;;;;;;;8.47;4.77;;;;;;;;;;5035991;28;20675;-66
2023/05/19 12:43:00;;;;;;;2.00;1.70;;;;;;;;;;5036116;28;20163;-65
2023/05/19 12:45:27;;;;;;;5.73;3.00;;;;;;;;;;5018355;28;20226;-65
2023/05/19 12:47:53;;;;;;;6.10;2.87;;;;;;;;;;5035846;28;20553;-65
2023/05/19 12:50:19;;;;;;;5.93;3.23;;;;;;;;;;5036582;28;20231;-65
2023/05/19 12:52:46;;;;;;;9.40;4.17;;;;;;;;;;5035984;28;20178;-65
2023/05/19 12:55:13;;;;;;;5.50;3.00;;;;;;;;;;5035860;28;20531;-66
2023/05/19 12:57:43;;;;;;;10.10;3.60;;;;;;;;;;5035991;28;20175;-64
2023/05/19 13:00:16;;;;;;;11.73;3.07;;;;;;;;;;5035630;28;20198;-66
2023/05/19 13:03:03;;;;;;;9.67;4.03;;;;;;;;;;5036082;28;20550;-64
2023/05/19 13:05:30;;;;;;;6.50;2.70;;;;;;;;;;5018582;28;20183;-64
2023/05/19 13:08:06;;;;;;;5.20;2.57;;;;;;;;;;5036439;28;20238;-65
2023/05/19 13:10:33;;;;;;;5.83;2.67;;;;;;;;;;5035619;28;20201;-65
2023/05/19 13:12:59;;;;;;;8.83;2.50;;;;;;;;;;5035787;28;20176;-65
2023/05/19 13:15:26;;;;;;;8.60;3.13;;;;;;;;;;5037198;28;20175;-64
2023/05/19 13:17:53;;;;;;;6.83;2.50;;;;;;;;;;5036139;28;20186;-64
2023/05/19 13:20:19;;;;;;;5.97;2.90;;;;;;;;;;5036459;28;20555;-64
2023/05/19 13:22:46;;;;;;;10.60;2.77;;;;;;;;;;5036380;28;20235;-64
2023/05/19 13:25:12;;;;;;;6.43;2.80;;;;;;;;;;5035372;28;20178;-64
2023/05/19 13:27:38;;;;;;;11.03;2.87;;;;;;;;;;5017327;28;20302;-68
2023/05/19 13:30:04;;;;;;;4.27;2.40;;;;;;;;;;5017254;28;20585;-67
2023/05/19 13:32:30;;;;;;;13.13;3.20;;;;;;;;;;5034319;28;20184;-66
2023/05/19 13:34:57;;;;;;;5.07;2.57;;;;;;;;;;5035323;28;20546;-67
2023/05/19 13:37:23;;;;;;;14.33;3.43;;;;;;;;;;5035307;28;20178;-68
2023/05/19 13:39:49;;;;;;;10.57;2.93;;;;;;;;;;5016773;28;20557;-66
2023/05/19 13:42:16;;;;;;;3.60;2.60;;;;;;;;;;5034011;28;20219;-67
2023/05/19 13:44:42;;;;;;;4.13;2.47;;;;;;;;;;5029615;23;20231;-68
2023/05/19 13:47:08;;;;;;;5.63;2.50;;;;;;;;;;5034141;28;20187;-68
2023/05/19 13:49:34;;;;;;;4.87;2.37;;;;;;;;;;5035291;28;20179;-68
2023/05/19 13:52:00;;;;;;;4.13;2.53;;;;;;;;;;5017807;28;20179;-68
2023/05/19 13:54:26;;;;;;;4.47;2.50;;;;;;;;;;5034670;28;20205;-68
2023/05/19 13:56:52;;;;;;;10.87;2.70;;;;;;;;;;5033872;28;20637;-68
2023/05/19 13:59:20;;;;;;;5.43;2.80;;;;;;;;;;5034109;28;20229;-68
2023/05/19 14:01:46;;;;;;;7.20;2.50;;;;;;;;;;5016140;28;20183;-68
2023/05/19 14:04:12;;;;;;;7.97;3.00;;;;;;;;;;5033936;28;20295;-68
2023/05/19 14:06:38;;;;;;;5.33;2.33;;;;;;;;;;5016885;28;20569;-68
2023/05/19 14:09:05;;;;;;;5.33;2.47;;;;;;;;;;5034593;28;20195;-68
2023/05/19 14:11:31;;;;;;;5.03;2.93;;;;;;;;;;5016457;28;20182;-68
2023/05/19 14:13:57;;;;;;;4.53;2.40;;;;;;;;;;5033806;28;20570;-68
2023/05/19 14:16:25;;;;;;;5.33;2.90;;;;;;;;;;5033278;28;20181;-68
2023/05/19 14:18:51;;;;;;;5.93;2.80;;;;;;;;;;5017166;28;20189;-68
2023/05/19 14:21:17;;;;;;;8.13;2.43;;;;;;;;;;5015586;28;20218;-68
2023/05/19 14:23:43;;;;;;;3.07;2.73;;;;;;;;;;5015734;28;20213;-68
2023/05/19 14:26:09;;;;;;;6.20;2.60;;;;;;;;;;5033121;28;20175;-69
2023/05/19 14:28:35;;;;;;;5.80;2.60;;;;;;;;;;5033307;28;20198;-68
2023/05/19 14:31:00;;;;;;;8.30;3.40;;;;;;;;;;5033223;28;20214;-69
2023/05/19 14:33:26;;;;;;;5.13;2.70;;;;;;;;;;5033134;28;20547;-69
2023/05/19 14:35:54;;;;;;;3.60;2.43;;;;;;;;;;5015306;28;20199;-68